This is the latest recevied weather packets stored in our database for station/object KD4MBW. If no packets are shown the sender has not sent any weather packets the latest 1 day(s).
| Time | Temp. | Humidity | Pressure | Rain* | Wind** | Luminosity | Snow |
|---|---|---|---|---|---|---|---|
| 1778009528 | 26.67° C | 63% | 1015.7 hPa | 0 mm | 3.13 m/s, 212° | 715 W/m² | - |
| 1778009227 | 26.67° C | 62% | 1015.5 hPa | 0 mm | 4.47 m/s, 219° | 726 W/m² | - |
| 1778008923 | 26.67° C | 62% | 1015.6 hPa | 0 mm | 2.68 m/s, 213° | 346 W/m² | - |
| 1778008621 | 27.22° C | 63% | 1015.4 hPa | 0 mm | 1.34 m/s, 200° | 690 W/m² | - |
| 1778008319 | 26.67° C | 62% | 1015.5 hPa | 0 mm | 2.68 m/s, 206° | 736 W/m² | - |
| 1778008015 | 26.67° C | 62% | 1015.8 hPa | 0 mm | 3.13 m/s, 240° | 782 W/m² | - |
| 1778007710 | 26.11° C | 64% | 1015.9 hPa | 0 mm | 4.02 m/s, 203° | 787 W/m² | - |
| 1778007407 | 26.11° C | 63% | 1016.1 hPa | 0 mm | 3.13 m/s, 182° | 760 W/m² | - |
| 1778007103 | 26.11° C | 64% | 1015.9 hPa | 0 mm | 1.34 m/s, 246° | 759 W/m² | - |
| 1778006800 | 25.56° C | 65% | 1015.9 hPa | 0 mm | 1.34 m/s, 203° | 788 W/m² | - |
| 1778006497 | 26.67° C | 62% | 1016.2 hPa | 0 mm | 2.68 m/s, 263° | 745 W/m² | - |
| 1778006194 | 26.67° C | 63% | 1016 hPa | 0 mm | 0.89 m/s, 181° | 705 W/m² | - |
| 1778005892 | 26.11° C | 64% | 1016 hPa | 0 mm | 1.34 m/s, 277° | 714 W/m² | - |
| 1778005587 | 26.11° C | 64% | 1016.1 hPa | 0 mm | 4.02 m/s, 191° | 768 W/m² | - |
| 1778005284 | 26.11° C | 64% | 1016.3 hPa | 0 mm | 2.24 m/s, 230° | 722 W/m² | - |
| 1778004981 | 26.11° C | 62% | 1016.1 hPa | 0 mm | 2.24 m/s, 224° | 743 W/m² | - |
| 1778004678 | 26.11° C | 63% | 1016.1 hPa | 0 mm | 3.13 m/s, 203° | 702 W/m² | - |
| 1778004374 | 26.11° C | 63% | 1016 hPa | 0 mm | 2.24 m/s, 224° | 855 W/m² | - |
| 1778004072 | 26.11° C | 63% | 1016.3 hPa | 0 mm | 2.68 m/s, 266° | 838 W/m² | - |
| 1778003768 | 26.11° C | 62% | 1016.2 hPa | 0 mm | 2.68 m/s, 254° | 842 W/m² | - |
| 1778003464 | 25.56° C | 63% | 1016.3 hPa | 0 mm | 1.79 m/s, 267° | 846 W/m² | - |
| 1778003161 | 25.56° C | 63% | 1016.1 hPa | 0 mm | 2.68 m/s, 203° | 842 W/m² | - |
| 1778002857 | 26.11° C | 61% | 1016.5 hPa | 0 mm | 3.58 m/s, 205° | 379 W/m² | - |
| 1778002554 | 25.56° C | 62% | 1016.4 hPa | 0 mm | 3.13 m/s, 250° | 863 W/m² | - |
| 1778002251 | 25.56° C | 61% | 1016.4 hPa | 0 mm | 3.13 m/s, 235° | 654 W/m² | - |
* Rain latest hour (hover to see other rain measurements)
** Current wind speed in m/s (hover to see current wind gust speed)